Time;durP1;ratioP1;P1;durP2;ratioP2;P2;SDS_P1;SDS_P2;PMS_P1;PMS_P2;Temp;Humidity;BMP_temperature;BMP_pressure;BME280_temperature;BME280_humidity;BME280_pressure;Samples;Min_cycle;Max_cycle;Signal;HPM_P1;HPM_P2
2023/07/28 08:16:11;;;;;;;8.13;2.90;;;25.30;70.20;;;;;;5084671;27;20419;-59
2023/07/28 08:20:15;;;;;;;17.88;2.20;;;25.20;69.10;;;;;;5020404;27;20504;-58
2023/07/28 08:22:41;;;;;;;8.70;4.20;;;25.10;71.40;;;;;;5005205;28;20109;-60
2023/07/28 08:25:07;;;;;;;4.30;3.90;;;25.00;71.90;;;;;;5009256;28;20135;-58
2023/07/28 08:27:33;;;;;;;5.45;3.97;;;24.40;73.80;;;;;;5010651;28;20044;-58
2023/07/28 08:29:58;;;;;;;5.82;4.05;;;23.90;74.40;;;;;;5023478;28;20028;-58
2023/07/28 08:32:24;;;;;;;7.53;3.58;;;23.70;75.30;;;;;;5008691;28;20038;-59
2023/07/28 08:34:50;;;;;;;13.05;4.00;;;23.60;76.00;;;;;;5009005;28;20345;-59
2023/07/28 08:37:15;;;;;;;7.75;4.43;;;23.40;76.30;;;;;;5008822;28;20050;-60
2023/07/28 08:39:41;;;;;;;7.45;4.05;;;23.20;76.90;;;;;;5008096;28;20170;-59
2023/07/28 08:42:07;;;;;;;7.63;4.07;;;23.10;77.70;;;;;;4983375;28;20550;-57
2023/07/28 08:44:34;;;;;;;25.70;4.22;;;23.10;77.90;;;;;;5009455;28;20521;-58
2023/07/28 08:47:06;;;;;;;11.50;4.18;;;23.10;78.40;;;;;;4984635;28;20018;-64
2023/07/28 08:49:35;;;;;;;9.52;4.10;;;23.00;77.90;;;;;;5003160;28;20346;-55
2023/07/28 08:52:01;;;;;;;9.73;3.80;;;23.00;78.20;;;;;;5006803;28;20073;-60
2023/07/28 08:54:27;;;;;;;15.55;3.03;;;23.10;78.10;;;;;;5006423;28;20038;-59
2023/07/28 08:56:53;;;;;;;6.72;2.80;;;23.20;77.90;;;;;;5032484;28;20037;-59
2023/07/28 08:59:27;;;;;;;4.40;3.08;;;23.20;77.60;;;;;;5009332;28;20025;-59
2023/07/28 09:01:59;;;;;;;4.40;3.03;;;23.20;77.40;;;;;;5007967;28;20034;-59
2023/07/28 09:04:25;;;;;;;9.07;2.97;;;23.10;77.80;;;;;;5001549;28;20026;-60
2023/07/28 09:06:51;;;;;;;6.35;3.22;;;23.00;78.00;;;;;;5008336;28;20483;-60
2023/07/28 09:09:20;;;;;;;5.35;2.85;;;23.00;78.50;;;;;;5007516;28;20097;-60
2023/07/28 09:11:53;;;;;;;5.40;3.05;;;23.00;78.80;;;;;;5007906;28;20117;-61
2023/07/28 09:16:20;;;;;;;3.15;2.22;;;23.20;79.10;;;;;;5047498;27;20771;-61
2023/07/28 09:18:47;;;;;;;2.55;2.17;;;23.20;78.90;;;;;;5040399;28;20068;-62
2023/07/28 09:21:20;;;;;;;2.63;2.35;;;23.00;78.00;;;;;;5029580;28;20049;-61
2023/07/28 09:23:47;;;;;;;3.92;2.60;;;23.00;78.80;;;;;;5031214;28;20036;-60
2023/07/28 09:26:14;;;;;;;3.30;2.58;;;22.80;79.00;;;;;;5007182;28;20037;-62
2023/07/28 09:28:41;;;;;;;4.07;2.95;;;22.90;79.10;;;;;;5035651;28;20063;-65
2023/07/28 09:31:07;;;;;;;3.80;2.65;;;22.90;79.30;;;;;;5043485;28;20483;-62
2023/07/28 09:33:35;;;;;;;8.82;3.28;;;22.90;79.50;;;;;;5040121;28;20071;-61
2023/07/28 09:36:27;;;;;;;25.08;3.58;;;22.80;79.40;;;;;;5046466;28;20025;-56
2023/07/28 09:38:54;;;;;;;6.97;3.40;;;22.60;82.10;;;;;;5037290;28;20042;-56
2023/07/28 09:41:22;;;;;;;3.33;3.00;;;22.40;84.00;;;;;;5029030;28;20517;-58
2023/07/28 09:43:49;;;;;;;6.18;3.00;;;22.20;84.40;;;;;;5042916;28;20469;-58
2023/07/28 09:46:17;;;;;;;6.88;4.00;;;22.10;85.50;;;;;;5044236;28;20037;-60
2023/07/28 09:48:48;;;;;;;6.47;2.88;;;22.20;85.90;;;;;;5028463;28;20022;-73
2023/07/28 09:51:19;;;;;;;36.33;3.63;;;22.30;86.20;;;;;;5053013;28;20434;-57
2023/07/28 09:53:52;;;;;;;8.15;2.35;;;22.30;86.80;;;;;;5048501;28;20148;-59
2023/07/28 09:56:22;;;;;;;17.07;2.83;;;22.20;88.50;;;;;;5049106;28;20033;-68
2023/07/28 09:58:53;;;;;;;10.18;2.08;;;22.00;88.80;;;;;;5044182;28;20021;-69
2023/07/28 10:01:21;;;;;;;9.07;2.08;;;21.80;88.10;;;;;;5036684;28;20025;-71
2023/07/28 10:03:47;;;;;;;3.45;1.60;;;21.50;90.00;;;;;;5048437;28;20017;-75
2023/07/28 10:06:16;;;;;;;2.50;1.73;;;21.20;91.40;;;;;;5048789;28;20410;-75
2023/07/28 10:08:43;;;;;;;3.75;2.10;;;21.20;93.00;;;;;;5048674;28;20070;-76
2023/07/28 10:11:11;;;;;;;2.30;2.00;;;21.40;92.50;;;;;;5047433;28;20064;-74
2023/07/28 10:13:44;;;;;;;2.85;1.80;;;21.50;92.00;;;;;;5048852;28;20131;-73
2023/07/28 10:16:10;;;;;;;2.25;2.05;;;21.50;91.60;;;;;;5058204;28;20053;-75
2023/07/28 10:18:37;;;;;;;2.72;1.92;;;21.10;93.10;;;;;;5041811;28;20068;-64
2023/07/28 10:21:08;;;;;;;10.80;2.53;;;21.30;93.00;;;;;;5004168;28;20692;-63
2023/07/28 10:23:37;;;;;;;4.28;1.85;;;21.40;92.80;;;;;;5048108;28;20068;-65
2023/07/28 10:26:07;;;;;;;1.95;1.75;;;21.50;92.40;;;;;;5043439;28;20091;-62
2023/07/28 10:28:40;;;;;;;6.35;2.28;;;21.80;91.90;;;;;;5053319;28;20088;-67
2023/07/28 10:31:10;;;;;;;1.80;1.70;;;22.00;92.30;;;;;;5054427;28;20020;-65
2023/07/28 10:33:46;;;;;;;2.22;2.00;;;22.10;91.80;;;;;;5055165;28;20017;-68
2023/07/28 10:36:21;;;;;;;2.95;2.13;;;21.90;92.10;;;;;;5042537;28;20459;-66
2023/07/28 10:39:00;;;;;;;2.67;1.85;;;21.80;93.00;;;;;;5033294;28;20068;-70
2023/07/28 10:41:25;;;;;;;6.25;1.92;;;22.00;94.00;;;;;;5034972;28;20057;-67
2023/07/28 10:43:52;;;;;;;3.40;1.80;;;22.30;92.20;;;;;;5033616;28;20072;-67
2023/07/28 10:46:20;;;;;;;2.10;1.90;;;22.20;92.50;;;;;;5035155;28;20041;-68
2023/07/28 10:48:48;;;;;;;1.80;1.70;;;22.20;93.90;;;;;;5051838;28;20121;-67
2023/07/28 10:51:26;;;;;;;2.47;2.10;;;22.00;93.70;;;;;;5048242;28;20040;-66
2023/07/28 10:53:56;;;;;;;3.55;1.88;;;22.10;93.10;;;;;;5034098;28;20017;-66
2023/07/28 10:56:23;;;;;;;2.38;1.80;;;22.20;92.20;;;;;;5014331;28;20505;-68
2023/07/28 10:59:04;;;;;;;6.43;2.67;;;22.40;92.30;;;;;;5035333;28;20487;-67
2023/07/28 11:01:37;;;;;;;5.65;2.22;;;22.40;92.00;;;;;;5036144;28;20043;-64
2023/07/28 11:04:09;;;;;;;;;;;22.70;91.50;;;;;;5037621;28;20053;-63
2023/07/28 11:06:35;;;;;;;10.38;2.03;;;22.80;91.50;;;;;;5014177;28;20402;-65
2023/07/28 11:09:00;;;;;;;4.68;2.03;;;23.10;91.10;;;;;;5039807;28;20045;-65
2023/07/28 11:11:45;;;;;;;4.30;2.17;;;23.20;89.50;;;;;;5042881;28;20072;-65
2023/07/28 11:14:11;;;;;;;3.45;3.15;;;23.20;88.90;;;;;;5051235;28;20025;-65
2023/07/28 11:16:39;;;;;;;6.43;3.33;;;23.20;88.70;;;;;;5048056;28;20067;-65
2023/07/28 11:19:11;;;;;;;3.63;3.28;;;23.20;91.60;;;;;;5032327;28;20105;-65
2023/07/28 11:21:37;;;;;;;4.63;2.65;;;23.30;91.90;;;;;;5034239;28;20028;-68
2023/07/28 11:24:04;;;;;;;4.80;2.78;;;23.20;91.40;;;;;;5033368;28;20036;-68
2023/07/28 11:26:30;;;;;;;3.72;2.33;;;23.30;92.40;;;;;;5037584;28;20021;-66
2023/07/28 11:28:56;;;;;;;2.53;2.30;;;23.40;93.50;;;;;;5053137;28;20028;-67
2023/07/28 11:31:25;;;;;;;2.92;2.35;;;23.60;93.00;;;;;;5044085;28;20486;-65
2023/07/28 11:33:53;;;;;;;3.10;2.38;;;23.50;94.20;;;;;;5033381;28;20167;-66
2023/07/28 11:36:27;;;;;;;2.60;2.30;;;23.60;93.40;;;;;;5033322;28;20034;-69
2023/07/28 11:38:54;;;;;;;2.20;2.05;;;23.40;92.00;;;;;;5032338;28;20036;-67
2023/07/28 11:41:21;;;;;;;5.78;2.72;;;23.40;92.10;;;;;;5034834;28;20102;-64
2023/07/28 11:43:51;;;;;;;6.45;2.20;;;23.40;92.10;;;;;;5045170;28;20096;-69
2023/07/28 11:46:55;;;;;;;2.50;2.30;;;23.50;93.10;;;;;;5053613;28;20056;-66
2023/07/28 11:49:24;;;;;;;3.53;2.33;;;23.60;91.60;;;;;;4980770;28;20034;-67
2023/07/28 11:51:54;;;;;;;2.53;2.20;;;23.60;92.60;;;;;;5042122;28;20033;-71
2023/07/28 11:54:27;;;;;;;2.88;2.67;;;23.60;92.00;;;;;;5052811;28;20509;-73
2023/07/28 11:56:55;;;;;;;3.40;2.53;;;23.60;90.60;;;;;;5052697;28;20107;-74
2023/07/28 11:59:22;;;;;;;2.60;2.38;;;23.50;91.30;;;;;;5053260;28;20013;-69
2023/07/28 12:02:02;;;;;;;2.70;2.50;;;23.60;91.20;;;;;;5053064;28;20036;-71
2023/07/28 12:04:31;;;;;;;4.50;3.05;;;23.70;91.10;;;;;;5053226;28;20029;-68
2023/07/28 12:07:12;;;;;;;3.50;2.88;;;23.70;90.40;;;;;;5046572;28;20104;-72
2023/07/28 12:09:48;;;;;;;3.08;2.83;;;23.70;91.30;;;;;;5036358;28;20108;-73
2023/07/28 12:12:15;;;;;;;4.68;2.75;;;23.80;91.00;;;;;;5051626;28;20025;-71
2023/07/28 12:14:41;;;;;;;5.00;2.85;;;23.90;91.10;;;;;;5041674;28;20495;-73
2023/07/28 12:17:18;;;;;;;2.85;2.60;;;24.00;91.30;;;;;;5047219;28;20171;-73
2023/07/28 12:19:57;;;;;;;3.33;2.72;;;24.00;90.70;;;;;;5045912;28;20103;-72
2023/07/28 12:22:23;;;;;;;4.50;2.78;;;23.90;89.90;;;;;;5048465;28;20025;-72
2023/07/28 12:24:48;;;;;;;2.65;2.20;;;24.00;89.20;;;;;;5053285;28;20475;-74
2023/07/28 12:27:15;;;;;;;5.22;3.00;;;24.00;88.20;;;;;;5052679;28;20025;-74
2023/07/28 12:29:41;;;;;;;3.90;3.50;;;24.00;87.20;;;;;;5052032;28;20470;-69
2023/07/28 12:32:07;;;;;;;9.80;4.20;;;23.70;87.20;;;;;;5044742;28;20104;-67
2023/07/28 12:34:33;;;;;;;7.82;4.28;;;23.60;90.10;;;;;;5032582;28;20061;-68
2023/07/28 12:36:59;;;;;;;5.10;4.22;;;23.60;90.70;;;;;;5032431;28;20028;-66
2023/07/28 12:39:25;;;;;;;7.43;4.30;;;23.60;90.60;;;;;;5032750;28;20025;-70
2023/07/28 12:41:50;;;;;;;4.70;4.30;;;23.60;91.10;;;;;;5032804;28;20422;-69
2023/07/28 12:44:22;;;;;;;5.60;5.07;;;23.60;90.80;;;;;;5032382;28;20021;-69
2023/07/28 12:46:48;;;;;;;5.35;4.82;;;23.40;91.40;;;;;;5041217;28;20079;-70
2023/07/28 12:49:14;;;;;;;5.30;4.78;;;23.30;92.60;;;;;;5047086;28;20025;-71
2023/07/28 12:51:40;;;;;;;5.75;4.50;;;23.40;93.60;;;;;;5052232;28;20049;-73
2023/07/28 12:54:06;;;;;;;7.47;5.10;;;23.50;94.20;;;;;;5051882;28;20106;-74
2023/07/28 12:56:33;;;;;;;5.20;4.60;;;23.50;94.20;;;;;;5053060;28;20455;-79
2023/07/28 12:58:59;;;;;;;8.23;4.72;;;23.50;94.40;;;;;;5035413;28;20025;-76
2023/07/28 13:01:24;;;;;;;6.10;5.35;;;23.70;94.50;;;;;;5052437;28;20463;-73
2023/07/28 13:03:50;;;;;;;5.00;4.47;;;23.70;93.80;;;;;;5051399;28;20033;-72
2023/07/28 13:06:15;;;;;;;9.60;4.45;;;23.60;93.70;;;;;;5038159;28;20025;-70
2023/07/28 13:08:41;;;;;;;5.35;4.10;;;23.50;92.80;;;;;;5035038;28;20088;-69
2023/07/28 13:11:07;;;;;;;6.50;3.55;;;23.60;91.10;;;;;;5019933;28;20029;-71
2023/07/28 13:13:33;;;;;;;3.80;3.50;;;23.70;90.50;;;;;;5037743;28;20029;-70
2023/07/28 13:15:59;;;;;;;8.20;5.38;;;23.70;90.50;;;;;;5038203;28;20141;-69
2023/07/28 13:18:29;;;;;;;4.60;3.97;;;23.70;90.60;;;;;;5043587;28;20024;-68
2023/07/28 13:20:55;;;;;;;5.32;4.38;;;23.80;90.10;;;;;;5032994;28;20026;-72
2023/07/28 13:23:21;;;;;;;3.72;3.40;;;23.80;89.30;;;;;;5036980;28;20040;-67
2023/07/28 13:25:46;;;;;;;3.10;2.85;;;23.80;86.30;;;;;;5035078;28;20025;-77
2023/07/28 13:28:12;;;;;;;3.08;2.67;;;23.70;86.20;;;;;;5041080;28;21978;-77
2023/07/28 13:30:38;;;;;;;3.53;2.83;;;23.60;84.20;;;;;;5022114;28;20092;-83
2023/07/28 13:33:05;;;;;;;2.70;2.50;;;23.60;84.80;;;;;;5042215;28;20068;-76
2023/07/28 13:35:30;;;;;;;3.67;2.80;;;23.60;84.80;;;;;;5051781;28;20052;-79
2023/07/28 13:37:56;;;;;;;3.00;2.70;;;23.70;84.30;;;;;;5050317;28;20081;-71
2023/07/28 13:40:22;;;;;;;4.00;2.67;;;23.70;84.70;;;;;;5036830;28;20497;-71
2023/07/28 13:42:47;;;;;;;3.15;2.30;;;23.70;84.00;;;;;;5039068;28;20430;-70
2023/07/28 13:45:13;;;;;;;3.55;2.50;;;23.70;83.40;;;;;;5041295;28;20053;-69
2023/07/28 13:47:39;;;;;;;3.20;2.90;;;23.70;83.60;;;;;;5032465;28;20467;-69
2023/07/28 13:50:05;;;;;;;2.75;2.47;;;23.70;82.70;;;;;;5042278;28;20059;-67
2023/07/28 13:52:31;;;;;;;2.90;2.70;;;23.80;81.80;;;;;;5047598;28;20043;-70
2023/07/28 13:54:57;;;;;;;3.40;2.20;;;23.80;81.50;;;;;;5025050;28;20465;-68
2023/07/28 13:57:23;;;;;;;2.72;2.53;;;23.70;81.10;;;;;;5031302;28;20021;-69
2023/07/28 13:59:49;;;;;;;2.30;2.13;;;23.70;80.70;;;;;;5042351;28;20127;-68
2023/07/28 14:02:18;;;;;;;2.40;2.20;;;23.70;80.80;;;;;;5052921;28;20043;-63
2023/07/28 14:04:44;;;;;;;2.45;2.15;;;23.70;81.40;;;;;;5054335;28;20021;-66
2023/07/28 14:07:10;;;;;;;9.07;2.80;;;23.70;82.00;;;;;;5055227;28;20482;-64
2023/07/28 14:09:37;;;;;;;2.55;2.30;;;23.70;80.60;;;;;;5037839;28;20055;-64
2023/07/28 14:12:03;;;;;;;2.55;2.33;;;23.80;81.50;;;;;;5052790;28;20063;-65
2023/07/28 14:14:29;;;;;;;3.55;2.33;;;23.80;81.60;;;;;;5053401;28;20049;-65
2023/07/28 14:16:55;;;;;;;2.55;2.22;;;23.80;82.30;;;;;;5055329;28;20348;-64
2023/07/28 14:19:20;;;;;;;2.03;1.90;;;23.80;82.70;;;;;;5054589;28;20112;-65
2023/07/28 14:21:46;;;;;;;6.63;2.30;;;23.90;83.10;;;;;;5055657;28;20021;-63
2023/07/28 14:24:12;;;;;;;2.33;2.13;;;23.80;82.80;;;;;;5055195;28;20025;-64
2023/07/28 14:26:38;;;;;;;2.67;2.15;;;23.70;83.40;;;;;;5055444;28;20395;-64
2023/07/28 14:29:03;;;;;;;4.28;2.03;;;23.70;83.50;;;;;;5037397;28;20471;-64
2023/07/28 14:31:29;;;;;;;6.50;1.83;;;23.80;83.50;;;;;;5055494;28;20021;-64
2023/07/28 14:33:55;;;;;;;3.15;1.80;;;23.70;83.20;;;;;;5055405;28;20463;-63
2023/07/28 14:36:21;;;;;;;3.03;1.90;;;23.70;83.40;;;;;;5053453;28;20251;-62
2023/07/28 14:38:46;;;;;;;1.90;1.80;;;23.70;83.50;;;;;;5055429;28;20061;-63
2023/07/28 14:41:12;;;;;;;2.03;1.55;;;23.70;83.40;;;;;;5034972;28;20021;-65
2023/07/28 14:43:38;;;;;;;1.90;1.80;;;23.70;82.90;;;;;;5048882;28;20056;-64
2023/07/28 14:46:04;;;;;;;3.95;1.95;;;23.70;82.90;;;;;;5051545;28;20147;-65
2023/07/28 14:48:29;;;;;;;4.07;1.60;;;23.80;82.80;;;;;;5038380;28;20430;-66
2023/07/28 14:50:55;;;;;;;1.52;1.42;;;23.80;82.30;;;;;;5047098;28;20083;-65
2023/07/28 14:53:34;;;;;;;1.83;1.38;;;23.80;82.10;;;;;;5034324;28;20040;-64
2023/07/28 14:56:01;;;;;;;4.18;1.40;;;23.70;82.40;;;;;;5034936;28;20033;-63
2023/07/28 14:58:27;;;;;;;1.70;1.52;;;23.70;82.40;;;;;;5046469;28;20033;-64
2023/07/28 15:00:53;;;;;;;2.50;1.50;;;23.80;82.20;;;;;;5034916;28;20017;-64
2023/07/28 15:03:19;;;;;;;3.20;1.70;;;23.70;82.10;;;;;;5041728;28;20123;-64
2023/07/28 15:05:44;;;;;;;2.50;1.45;;;23.70;82.30;;;;;;5054870;28;20025;-64
2023/07/28 15:08:10;;;;;;;2.80;1.30;;;23.80;82.40;;;;;;5054324;28;20129;-62
2023/07/28 15:10:36;;;;;;;1.33;1.20;;;23.80;82.20;;;;;;5038531;28;20029;-64
2023/07/28 15:13:02;;;;;;;1.50;1.33;;;23.80;81.40;;;;;;5050399;28;20468;-62
2023/07/28 15:15:27;;;;;;;1.13;1.02;;;23.80;81.30;;;;;;5045093;28;20056;-63
2023/07/28 15:17:53;;;;;;;1.52;1.30;;;23.80;81.10;;;;;;5034508;28;20029;-64
2023/07/28 15:20:21;;;;;;;1.20;1.05;;;23.80;81.20;;;;;;5048973;28;20025;-64
2023/07/28 15:22:47;;;;;;;1.30;1.20;;;23.80;81.50;;;;;;5054461;28;20021;-66
2023/07/28 15:25:13;;;;;;;1.35;1.25;;;23.70;81.10;;;;;;5053888;28;20024;-68
2023/07/28 15:27:43;;;;;;;1.10;1.10;;;23.70;81.00;;;;;;5036589;28;20047;-65
2023/07/28 15:30:09;;;;;;;2.50;1.40;;;23.80;79.40;;;;;;5053976;28;20048;-61
2023/07/28 15:32:35;;;;;;;2.35;1.35;;;23.80;78.20;;;;;;5024941;28;20048;-63
2023/07/28 15:35:02;;;;;;;4.10;1.20;;;23.80;79.50;;;;;;5035943;28;20111;-62
2023/07/28 15:37:29;;;;;;;1.75;1.20;;;23.90;78.30;;;;;;5053585;28;20025;-65
2023/07/28 15:39:55;;;;;;;1.70;1.60;;;23.90;78.10;;;;;;5054119;28;20025;-64
2023/07/28 15:42:22;;;;;;;2.92;1.50;;;23.90;76.30;;;;;;5053215;28;20053;-63
2023/07/28 15:44:49;;;;;;;2.25;1.50;;;23.90;76.20;;;;;;5053194;28;20040;-63
2023/07/28 15:47:15;;;;;;;1.45;1.35;;;23.90;75.90;;;;;;5053403;28;20017;-63
2023/07/28 15:49:41;;;;;;;1.00;1.00;;;23.90;75.90;;;;;;5053041;28;20029;-63
2023/07/28 15:52:07;;;;;;;3.63;1.30;;;23.80;75.40;;;;;;5053696;28;20063;-63
2023/07/28 15:54:32;;;;;;;3.28;1.15;;;23.70;74.30;;;;;;5051884;28;20047;-61
2023/07/28 15:56:58;;;;;;;0.90;0.90;;;23.70;73.40;;;;;;5053186;28;20104;-61
2023/07/28 15:59:24;;;;;;;1.20;0.80;;;23.80;73.80;;;;;;5049437;28;20044;-60
2023/07/28 16:01:49;;;;;;;2.47;0.70;;;23.80;73.90;;;;;;5052614;28;20463;-61
2023/07/28 16:04:15;;;;;;;1.00;0.90;;;23.80;73.50;;;;;;5053003;28;20483;-61
2023/07/28 16:06:41;;;;;;;0.88;0.80;;;23.80;73.70;;;;;;5053579;28;20474;-61
2023/07/28 16:09:06;;;;;;;1.45;1.02;;;23.80;73.30;;;;;;5037779;28;20033;-62
2023/07/28 16:11:32;;;;;;;0.80;0.80;;;23.80;73.10;;;;;;5033054;28;20018;-62
2023/07/28 16:13:58;;;;;;;2.25;0.80;;;23.70;72.70;;;;;;5033429;28;20083;-60
2023/07/28 16:16:24;;;;;;;0.90;0.90;;;23.70;71.90;;;;;;5032714;28;20026;-63
2023/07/28 16:18:50;;;;;;;0.88;0.85;;;23.70;72.20;;;;;;5033408;28;20025;-62
2023/07/28 16:21:16;;;;;;;0.93;0.75;;;23.80;72.30;;;;;;5033347;28;20100;-63
2023/07/28 16:23:41;;;;;;;0.80;0.80;;;23.80;72.40;;;;;;5015308;28;20052;-62
2023/07/28 16:26:07;;;;;;;1.25;0.90;;;23.80;72.50;;;;;;5015693;28;20029;-63
2023/07/28 16:28:33;;;;;;;1.10;1.08;;;23.70;72.60;;;;;;5032819;28;20025;-62
2023/07/28 16:30:59;;;;;;;0.82;0.82;;;23.80;72.70;;;;;;5033591;28;20418;-62
2023/07/28 16:33:24;;;;;;;4.35;1.13;;;23.70;72.60;;;;;;5044547;28;20433;-61
2023/07/28 16:35:50;;;;;;;1.95;0.90;;;23.70;72.60;;;;;;5051899;28;20036;-63
2023/07/28 16:38:16;;;;;;;3.15;1.50;;;23.70;72.60;;;;;;5043399;28;20063;-63
2023/07/28 16:40:41;;;;;;;2.53;1.45;;;23.70;72.70;;;;;;5034333;28;20487;-62
2023/07/28 16:43:07;;;;;;;1.40;1.30;;;23.70;72.80;;;;;;5037552;28;20056;-63
2023/07/28 16:45:33;;;;;;;1.17;1.10;;;23.70;72.70;;;;;;5052503;28;20048;-62
2023/07/28 16:47:58;;;;;;;2.28;1.13;;;23.70;72.60;;;;;;5048562;28;20029;-62
2023/07/28 16:50:24;;;;;;;1.73;1.02;;;23.60;72.30;;;;;;5050717;28;20028;-62
2023/07/28 16:52:50;;;;;;;0.85;0.85;;;23.60;73.10;;;;;;5052632;28;20100;-61
2023/07/28 16:55:16;;;;;;;2.42;1.27;;;23.50;72.50;;;;;;5052279;28;20493;-62
2023/07/28 16:57:42;;;;;;;1.40;1.30;;;23.40;72.70;;;;;;5052889;28;20020;-61
2023/07/28 17:00:08;;;;;;;1.65;1.55;;;23.40;72.80;;;;;;5050955;28;20036;-64
2023/07/28 17:02:33;;;;;;;1.33;1.10;;;23.40;73.30;;;;;;5050293;28;20040;-62
2023/07/28 17:04:59;;;;;;;1.00;1.00;;;23.50;73.10;;;;;;5052799;28;20025;-61
2023/07/28 17:07:25;;;;;;;1.67;1.02;;;23.50;73.40;;;;;;5052280;28;20025;-62
2023/07/28 17:09:50;;;;;;;4.65;1.15;;;23.50;73.60;;;;;;5052365;28;20099;-61
2023/07/28 17:12:16;;;;;;;2.65;1.90;;;23.50;74.30;;;;;;5034434;28;20473;-64
2023/07/28 17:14:41;;;;;;;1.48;1.10;;;23.40;74.20;;;;;;5052381;28;20411;-61
2023/07/28 17:17:07;;;;;;;3.72;1.30;;;23.40;74.00;;;;;;5052451;28;20051;-62
2023/07/28 17:19:33;;;;;;;2.03;1.20;;;23.40;74.00;;;;;;5051926;28;20429;-62
2023/07/28 17:21:59;;;;;;;1.13;1.05;;;23.50;73.90;;;;;;5052853;28;20109;-63
2023/07/28 17:24:24;;;;;;;1.08;0.98;;;23.40;73.90;;;;;;5052124;28;20079;-62
2023/07/28 17:26:50;;;;;;;4.13;1.20;;;23.40;74.20;;;;;;5052540;28;20025;-62
2023/07/28 17:29:16;;;;;;;4.05;1.20;;;23.30;74.40;;;;;;5034683;28;20539;-62
2023/07/28 17:31:41;;;;;;;0.90;0.90;;;23.30;74.60;;;;;;5052020;28;20053;-62
2023/07/28 17:34:07;;;;;;;1.13;1.10;;;23.30;74.60;;;;;;5052197;28;20085;-62
2023/07/28 17:36:32;;;;;;;1.02;1.02;;;23.20;74.70;;;;;;5053152;28;20359;-63
2023/07/28 17:38:58;;;;;;;2.60;1.20;;;23.20;74.70;;;;;;5056301;28;20025;-61
2023/07/28 17:41:24;;;;;;;1.38;1.27;;;23.10;75.00;;;;;;5055745;28;20021;-61
2023/07/28 17:43:49;;;;;;;1.15;1.00;;;23.10;74.90;;;;;;5038688;28;20025;-63
2023/07/28 17:46:15;;;;;;;1.10;1.00;;;23.00;75.10;;;;;;5056394;28;20025;-64
2023/07/28 17:48:41;;;;;;;5.60;1.20;;;23.10;75.30;;;;;;5055584;28;20147;-63
2023/07/28 17:51:07;;;;;;;1.27;1.00;;;23.20;75.20;;;;;;5054020;28;20029;-62
2023/07/28 17:53:32;;;;;;;1.38;1.02;;;23.20;75.20;;;;;;5043479;28;20032;-62
2023/07/28 17:55:58;;;;;;;1.50;1.20;;;23.20;75.40;;;;;;5054415;28;20586;-63
2023/07/28 17:58:24;;;;;;;3.13;1.20;;;23.20;75.20;;;;;;5055490;28;20056;-62
2023/07/28 18:00:50;;;;;;;3.80;1.13;;;23.10;75.60;;;;;;5037936;28;20102;-62
2023/07/28 18:03:15;;;;;;;16.80;1.45;;;23.20;75.20;;;;;;5043104;28;20036;-61
2023/07/28 18:05:41;;;;;;;1.20;1.10;;;23.20;75.00;;;;;;5050771;28;20079;-61
2023/07/28 18:08:11;;;;;;;1.30;1.20;;;23.30;75.00;;;;;;5049921;28;20053;-61
2023/07/28 18:10:40;;;;;;;2.97;0.93;;;23.20;74.80;;;;;;5044003;28;20025;-64
2023/07/28 18:13:07;;;;;;;1.60;1.10;;;23.20;75.00;;;;;;5047364;28;20021;-63
2023/07/28 18:15:33;;;;;;;1.60;1.00;;;23.20;75.10;;;;;;5035074;28;20048;-66
2023/07/28 18:18:00;;;;;;;1.40;0.90;;;23.10;75.10;;;;;;5047859;28;20097;-67
2023/07/28 18:20:27;;;;;;;3.65;0.98;;;23.10;75.20;;;;;;5034725;28;20029;-65
2023/07/28 18:22:53;;;;;;;0.82;0.82;;;23.00;75.20;;;;;;5043393;28;20494;-64
2023/07/28 18:25:19;;;;;;;0.88;0.88;;;23.00;75.30;;;;;;5054686;28;20033;-64
2023/07/28 18:27:45;;;;;;;1.20;0.90;;;23.00;75.20;;;;;;5035513;28;20073;-61
2023/07/28 18:30:12;;;;;;;2.40;1.00;;;23.00;75.10;;;;;;5035507;28;20036;-61
2023/07/28 18:32:38;;;;;;;0.98;0.90;;;23.00;75.30;;;;;;5034637;28;20144;-61
2023/07/28 18:35:04;;;;;;;2.45;1.15;;;22.90;75.20;;;;;;5038045;28;20396;-61
2023/07/28 18:37:30;;;;;;;1.83;1.30;;;23.00;75.20;;;;;;5043696;28;20035;-62
2023/07/28 18:39:57;;;;;;;1.25;1.05;;;22.90;75.00;;;;;;5036508;28;20099;-61
2023/07/28 18:42:23;;;;;;;2.08;0.85;;;22.90;75.20;;;;;;5046956;28;20439;-61
2023/07/28 18:44:49;;;;;;;2.58;1.05;;;22.90;75.10;;;;;;5054349;28;20053;-61
2023/07/28 18:47:16;;;;;;;1.15;1.10;;;22.80;75.20;;;;;;5054502;28;20071;-63
2023/07/28 18:49:42;;;;;;;5.03;1.00;;;22.80;75.20;;;;;;5035693;28;20459;-61
2023/07/28 18:52:07;;;;;;;2.80;1.50;;;22.90;75.20;;;;;;5033614;28;20047;-61
2023/07/28 18:54:33;;;;;;;1.77;1.13;;;22.80;75.30;;;;;;5034186;28;20387;-62
2023/07/28 18:56:59;;;;;;;1.58;1.05;;;22.80;75.60;;;;;;5040609;28;20025;-60
2023/07/28 18:59:24;;;;;;;2.05;1.10;;;22.80;75.40;;;;;;5038364;28;20020;-63
2023/07/28 19:01:50;;;;;;;1.40;1.30;;;22.80;75.60;;;;;;5049367;28;20041;-62
2023/07/28 19:04:16;;;;;;;1.17;1.10;;;22.70;75.90;;;;;;5045389;28;20017;-63
2023/07/28 19:06:41;;;;;;;2.67;1.38;;;22.70;75.90;;;;;;5048440;28;20478;-61
2023/07/28 19:09:07;;;;;;;0.95;0.90;;;22.70;75.90;;;;;;5044299;28;20102;-61
2023/07/28 19:11:33;;;;;;;1.58;1.35;;;22.70;76.10;;;;;;5054091;28;20026;-62
2023/07/28 19:13:58;;;;;;;3.65;1.23;;;22.70;76.30;;;;;;5043540;28;20060;-60
2023/07/28 19:16:24;;;;;;;5.93;1.35;;;22.70;76.70;;;;;;5034294;28;20025;-61
2023/07/28 19:18:50;;;;;;;2.65;1.17;;;22.60;77.00;;;;;;5030842;28;20033;-60
2023/07/28 19:21:15;;;;;;;9.32;1.63;;;22.60;77.10;;;;;;5028063;28;20071;-61
2023/07/28 19:23:41;;;;;;;8.88;1.60;;;22.60;77.60;;;;;;5031269;28;20056;-58
2023/07/28 19:26:10;;;;;;;2.22;1.23;;;22.50;77.80;;;;;;5031776;28;20045;-59
2023/07/28 19:28:36;;;;;;;3.20;1.20;;;22.60;77.60;;;;;;5037494;28;20054;-61
2023/07/28 19:31:04;;;;;;;1.38;1.27;;;22.60;77.60;;;;;;5050329;28;20535;-61
2023/07/28 19:33:31;;;;;;;2.40;1.20;;;22.60;77.50;;;;;;5049529;28;20025;-62
2023/07/28 19:35:57;;;;;;;1.38;1.27;;;22.60;77.60;;;;;;5034111;28;20031;-61
2023/07/28 19:38:23;;;;;;;3.55;1.50;;;22.60;77.50;;;;;;5033245;28;20109;-62
2023/07/28 19:40:48;;;;;;;2.13;1.50;;;22.70;77.50;;;;;;5033425;28;20116;-62
2023/07/28 19:43:14;;;;;;;1.90;1.70;;;22.60;77.50;;;;;;5033691;28;20052;-61
2023/07/28 19:45:40;;;;;;;2.20;2.00;;;22.60;77.60;;;;;;5037304;28;20021;-61
2023/07/28 19:48:06;;;;;;;1.70;1.60;;;22.50;77.90;;;;;;5046952;28;88763;-60
